sensor_id;sensor_type;location;lat;lon;timestamp;pressure;altitude;pressure_sealevel;temperature;humidity
74474;BME280;62922;-6.168;106.796;2023-06-10T01:05:41;101032.91;;;31.19;64.96
74474;BME280;62922;-6.168;106.796;2023-06-10T01:11:00;101039.75;;;31.18;64.85
74474;BME280;62922;-6.168;106.796;2023-06-10T01:13:29;101041.72;;;31.18;64.51
74474;BME280;62922;-6.168;106.796;2023-06-10T01:15:57;101043.38;;;31.19;64.98
74474;BME280;62922;-6.168;106.796;2023-06-10T01:18:29;101043.69;;;31.17;64.66
74474;BME280;62922;-6.168;106.796;2023-06-10T01:21:00;101040.88;;;31.17;64.72
74474;BME280;62922;-6.168;106.796;2023-06-10T01:23:28;101039.22;;;31.16;64.47
74474;BME280;62922;-6.168;106.796;2023-06-10T01:25:58;101044.03;;;31.16;64.19
74474;BME280;62922;-6.168;106.796;2023-06-10T01:28:27;101049.66;;;31.16;64.34
74474;BME280;62922;-6.168;106.796;2023-06-10T01:33:25;101039.22;;;31.16;64.04
74474;BME280;62922;-6.168;106.796;2023-06-10T01:35:52;101042.38;;;31.15;64.14
74474;BME280;62922;-6.168;106.796;2023-06-10T01:38:19;101036.75;;;31.15;63.81
74474;BME280;62922;-6.168;106.796;2023-06-10T01:40:47;101037.88;;;31.14;64.10
74474;BME280;62922;-6.168;106.796;2023-06-10T01:43:13;101034.25;;;31.13;63.85
74474;BME280;62922;-6.168;106.796;2023-06-10T01:45:39;101037.88;;;31.14;63.82
74474;BME280;62922;-6.168;106.796;2023-06-10T01:48:05;101035.06;;;31.14;63.86
74474;BME280;62922;-6.168;106.796;2023-06-10T01:50:31;101030.28;;;31.14;63.67
74474;BME280;62922;-6.168;106.796;2023-06-10T01:52:58;101035.06;;;31.14;64.04
74474;BME280;62922;-6.168;106.796;2023-06-10T01:55:24;101031.13;;;31.15;63.81
74474;BME280;62922;-6.168;106.796;2023-06-10T01:57:50;101031.91;;;31.15;63.94
74474;BME280;62922;-6.168;106.796;2023-06-10T02:00:17;101035.56;;;31.16;63.58
74474;BME280;62922;-6.168;106.796;2023-06-10T02:02:43;101039.56;;;31.15;63.29
74474;BME280;62922;-6.168;106.796;2023-06-10T02:05:09;101036.41;;;31.16;63.08
74474;BME280;62922;-6.168;106.796;2023-06-10T02:07:35;101040.06;;;31.17;63.07
74474;BME280;62922;-6.168;106.796;2023-06-10T02:10:01;101033.25;;;31.18;63.33
74474;BME280;62922;-6.168;106.796;2023-06-10T02:12:27;101033.25;;;31.18;63.33
74474;BME280;62922;-6.168;106.796;2023-06-10T02:14:53;101043.38;;;31.19;62.90
74474;BME280;62922;-6.168;106.796;2023-06-10T02:17:19;101034.09;;;31.18;63.14
74474;BME280;62922;-6.168;106.796;2023-06-10T02:19:45;101032.09;;;31.19;63.24
74474;BME280;62922;-6.168;106.796;2023-06-10T02:22:20;101028.13;;;31.20;63.14
74474;BME280;62922;-6.168;106.796;2023-06-10T02:24:49;101014.03;;;31.20;62.66
74474;BME280;62922;-6.168;106.796;2023-06-10T02:27:15;101018.81;;;31.19;62.72
74474;BME280;62922;-6.168;106.796;2023-06-10T02:29:41;101024.13;;;31.21;62.96
74474;BME280;62922;-6.168;106.796;2023-06-10T02:32:08;101014.53;;;31.22;62.77
74474;BME280;62922;-6.168;106.796;2023-06-10T02:34:35;101016.50;;;31.21;63.04
74474;BME280;62922;-6.168;106.796;2023-06-10T02:37:02;101017.34;;;31.22;63.02
74474;BME280;62922;-6.168;106.796;2023-06-10T02:39:28;101015.38;;;31.22;62.98
74474;BME280;62922;-6.168;106.796;2023-06-10T02:41:54;101013.34;;;31.23;62.55
74474;BME280;62922;-6.168;106.796;2023-06-10T02:44:20;101009.41;;;31.24;63.00
74474;BME280;62922;-6.168;106.796;2023-06-10T02:46:46;101006.56;;;31.24;62.69
74474;BME280;62922;-6.168;106.796;2023-06-10T02:49:12;101015.53;;;31.26;62.86
74474;BME280;62922;-6.168;106.796;2023-06-10T02:51:38;100994.97;;;31.25;63.12
74474;BME280;62922;-6.168;106.796;2023-06-10T02:54:07;100990.16;;;31.26;62.87
74474;BME280;62922;-6.168;106.796;2023-06-10T02:56:33;100999.44;;;31.26;63.54
74474;BME280;62922;-6.168;106.796;2023-06-10T02:59:00;100997.09;;;31.28;63.14
74474;BME280;62922;-6.168;106.796;2023-06-10T03:01:26;100994.63;;;31.27;63.13
74474;BME280;62922;-6.168;106.796;2023-06-10T03:03:54;100988.66;;;31.28;63.22
74474;BME280;62922;-6.168;106.796;2023-06-10T03:06:21;100983.84;;;31.29;63.32
74474;BME280;62922;-6.168;106.796;2023-06-10T03:08:49;100981.03;;;31.29;62.64
74474;BME280;62922;-6.168;106.796;2023-06-10T03:11:15;100985.50;;;31.30;62.72
74474;BME280;62922;-6.168;106.796;2023-06-10T03:13:41;100977.88;;;31.30;62.40
74474;BME280;62922;-6.168;106.796;2023-06-10T03:16:07;100978.72;;;31.31;62.75
74474;BME280;62922;-6.168;106.796;2023-06-10T03:18:33;100979.22;;;31.33;62.80
74474;BME280;62922;-6.168;106.796;2023-06-10T03:20:59;100979.22;;;31.33;62.24
74474;BME280;62922;-6.168;106.796;2023-06-10T03:23:25;100975.22;;;31.34;62.53
74474;BME280;62922;-6.168;106.796;2023-06-10T03:25:52;100968.44;;;31.35;62.15
74474;BME280;62922;-6.168;106.796;2023-06-10T03:28:20;100973.75;;;31.36;61.63
74474;BME280;62922;-6.168;106.796;2023-06-10T03:30:47;100979.41;;;31.36;61.68
74474;BME280;62922;-6.168;106.796;2023-06-10T03:33:16;100977.09;;;31.38;61.61
74474;BME280;62922;-6.168;106.796;2023-06-10T03:35:42;100975.09;;;31.39;61.22
74474;BME280;62922;-6.168;106.796;2023-06-10T03:38:10;100967.44;;;31.39;61.50
74474;BME280;62922;-6.168;106.796;2023-06-10T03:40:36;100969.13;;;31.40;61.50
74474;BME280;62922;-6.168;106.796;2023-06-10T03:43:02;100961.47;;;31.41;61.54
74474;BME280;62922;-6.168;106.796;2023-06-10T03:45:30;100953.84;;;31.41;61.16
74474;BME280;62922;-6.168;106.796;2023-06-10T03:47:57;100945.03;;;31.43;61.12
74474;BME280;62922;-6.168;106.796;2023-06-10T03:50:23;100938.25;;;31.44;61.25
74474;BME280;62922;-6.168;106.796;2023-06-10T03:52:50;100944.72;;;31.44;60.51
74474;BME280;62922;-6.168;106.796;2023-06-10T03:55:16;100946.38;;;31.45;61.24
74474;BME280;62922;-6.168;106.796;2023-06-10T03:57:47;100933.91;;;31.46;60.78
74474;BME280;62922;-6.168;106.796;2023-06-10T04:00:14;100927.97;;;31.48;60.64
74474;BME280;62922;-6.168;106.796;2023-06-10T04:02:40;100924.81;;;31.49;60.88
74474;BME280;62922;-6.168;106.796;2023-06-10T04:05:15;100919.16;;;31.49;61.15
74474;BME280;62922;-6.168;106.796;2023-06-10T04:07:44;100919.97;;;31.50;60.97
74474;BME280;62922;-6.168;106.796;2023-06-10T04:10:13;100916.84;;;31.51;60.82
74474;BME280;62922;-6.168;106.796;2023-06-10T04:12:40;100909.69;;;31.54;61.14
74474;BME280;62922;-6.168;106.796;2023-06-10T04:15:06;100911.19;;;31.60;62.44
74474;BME280;62922;-6.168;106.796;2023-06-10T04:17:32;100899.06;;;31.59;62.33
74474;BME280;62922;-6.168;106.796;2023-06-10T04:19:58;100899.88;;;31.60;62.10
74474;BME280;62922;-6.168;106.796;2023-06-10T04:22:24;100899.88;;;31.60;61.90
74474;BME280;62922;-6.168;106.796;2023-06-10T04:24:50;100893.06;;;31.61;61.84
74474;BME280;62922;-6.168;106.796;2023-06-10T04:27:16;100881.47;;;31.63;61.27
74474;BME280;62922;-6.168;106.796;2023-06-10T04:29:42;100876.63;;;31.63;61.59
74474;BME280;62922;-6.168;106.796;2023-06-10T04:32:08;100870.69;;;31.65;62.32
74474;BME280;62922;-6.168;106.796;2023-06-10T04:34:34;100874.31;;;31.65;61.99
74474;BME280;62922;-6.168;106.796;2023-06-10T04:37:00;100876.34;;;31.65;62.16
74474;BME280;62922;-6.168;106.796;2023-06-10T04:39:26;100862.69;;;31.67;62.90
74474;BME280;62922;-6.168;106.796;2023-06-10T04:41:52;100847.25;;;31.73;63.59
74474;BME280;62922;-6.168;106.796;2023-06-10T04:44:18;100854.50;;;31.82;64.52
74474;BME280;62922;-6.168;106.796;2023-06-10T04:46:47;100846.19;;;31.94;65.15
74474;BME280;62922;-6.168;106.796;2023-06-10T04:49:13;100843.31;;;32.03;65.21
74474;BME280;62922;-6.168;106.796;2023-06-10T04:51:40;100836.78;;;32.11;65.34
74474;BME280;62922;-6.168;106.796;2023-06-10T04:54:06;100834.59;;;32.16;66.58
74474;BME280;62922;-6.168;106.796;2023-06-10T04:56:32;100835.09;;;32.18;66.86
74474;BME280;62922;-6.168;106.796;2023-06-10T04:58:58;100839.09;;;32.17;66.59
74474;BME280;62922;-6.168;106.796;2023-06-10T05:01:25;100831.78;;;32.16;67.20
74474;BME280;62922;-6.168;106.796;2023-06-10T05:03:51;100826.81;;;32.13;66.90
74474;BME280;62922;-6.168;106.796;2023-06-10T05:06:17;100824.34;;;32.12;67.36
74474;BME280;62922;-6.168;106.796;2023-06-10T05:08:43;100816.53;;;32.09;66.63
74474;BME280;62922;-6.168;106.796;2023-06-10T05:11:09;100816.88;;;32.07;66.18
74474;BME280;62922;-6.168;106.796;2023-06-10T05:13:35;100809.25;;;32.08;65.73
74474;BME280;62922;-6.168;106.796;2023-06-10T05:16:01;100810.09;;;32.08;66.11
74474;BME280;62922;-6.168;106.796;2023-06-10T05:18:27;100808.91;;;32.09;65.55
74474;BME280;62922;-6.168;106.796;2023-06-10T05:20:53;100810.56;;;32.10;65.62
74474;BME280;62922;-6.168;106.796;2023-06-10T05:23:20;100808.06;;;32.09;64.55
74474;BME280;62922;-6.168;106.796;2023-06-10T05:25:46;100811.38;;;32.11;64.11
74474;BME280;62922;-6.168;106.796;2023-06-10T05:28:12;100802.56;;;32.12;64.64
74474;BME280;62922;-6.168;106.796;2023-06-10T05:30:38;100797.75;;;32.13;63.99
74474;BME280;62922;-6.168;106.796;2023-06-10T05:33:04;100797.41;;;32.14;63.89
74474;BME280;62922;-6.168;106.796;2023-06-10T05:35:33;100782.47;;;32.14;63.90
74474;BME280;62922;-6.168;106.796;2023-06-10T05:37:58;100779.31;;;32.15;64.15
74474;BME280;62922;-6.168;106.796;2023-06-10T05:40:24;100782.63;;;32.17;64.04
74474;BME280;62922;-6.168;106.796;2023-06-10T05:42:50;100783.44;;;32.18;63.57
74474;BME280;62922;-6.168;106.796;2023-06-10T05:45:16;100779.44;;;32.19;63.65
74474;BME280;62922;-6.168;106.796;2023-06-10T05:47:42;100769.00;;;32.19;63.28
74474;BME280;62922;-6.168;106.796;2023-06-10T05:50:08;100766.16;;;32.19;63.63
74474;BME280;62922;-6.168;106.796;2023-06-10T05:52:34;100766.66;;;32.21;63.91
74474;BME280;62922;-6.168;106.796;2023-06-10T05:55:01;100767.47;;;32.22;63.31
74474;BME280;62922;-6.168;106.796;2023-06-10T05:57:29;100761.47;;;32.23;63.09
74474;BME280;62922;-6.168;106.796;2023-06-10T05:59:55;100755.50;;;32.25;62.91
74474;BME280;62922;-6.168;106.796;2023-06-10T06:02:21;100757.50;;;32.24;62.88
74474;BME280;62922;-6.168;106.796;2023-06-10T06:04:47;100756.31;;;32.25;62.39
74474;BME280;62922;-6.168;106.796;2023-06-10T06:07:13;100754.66;;;32.24;62.82
74474;BME280;62922;-6.168;106.796;2023-06-10T06:09:39;100747.84;;;32.25;62.62
74474;BME280;62922;-6.168;106.796;2023-06-10T06:12:06;100748.66;;;32.26;62.86
74474;BME280;62922;-6.168;106.796;2023-06-10T06:14:33;100742.19;;;32.25;62.67
74474;BME280;62922;-6.168;106.796;2023-06-10T06:17:02;100739.34;;;32.25;62.85
74474;BME280;62922;-6.168;106.796;2023-06-10T06:19:28;100741.03;;;32.26;62.89
74474;BME280;62922;-6.168;106.796;2023-06-10T06:21:54;100730.88;;;32.25;62.29
74474;BME280;62922;-6.168;106.796;2023-06-10T06:24:20;100739.34;;;32.25;62.69
74474;BME280;62922;-6.168;106.796;2023-06-10T06:26:46;100732.91;;;32.25;62.73
74474;BME280;62922;-6.168;106.796;2023-06-10T06:29:11;100727.25;;;32.25;62.48
74474;BME280;62922;-6.168;106.796;2023-06-10T06:31:37;100733.72;;;32.25;62.59
74474;BME280;62922;-6.168;106.796;2023-06-10T06:34:03;100719.59;;;32.25;62.47
74474;BME280;62922;-6.168;106.796;2023-06-10T06:36:29;100714.78;;;32.26;61.75
74474;BME280;62922;-6.168;106.796;2023-06-10T06:38:55;100711.13;;;32.25;61.80
74474;BME280;62922;-6.168;106.796;2023-06-10T06:41:21;100710.31;;;32.25;62.23
74474;BME280;62922;-6.168;106.796;2023-06-10T06:43:47;100697.00;;;32.25;62.36
74474;BME280;62922;-6.168;106.796;2023-06-10T06:46:13;100705.81;;;32.24;61.82
74474;BME280;62922;-6.168;106.796;2023-06-10T06:48:39;100697.84;;;32.26;62.28
74474;BME280;62922;-6.168;106.796;2023-06-10T06:51:05;100695.00;;;32.26;61.87
74474;BME280;62922;-6.168;106.796;2023-06-10T06:53:34;100693.50;;;32.28;61.74
74474;BME280;62922;-6.168;106.796;2023-06-10T06:56:01;100695.50;;;32.28;61.71
74474;BME280;62922;-6.168;106.796;2023-06-10T06:58:29;100694.31;;;32.29;61.81
74474;BME280;62922;-6.168;106.796;2023-06-10T07:00:55;100689.50;;;32.29;62.22
74474;BME280;62922;-6.168;106.796;2023-06-10T07:03:21;100695.97;;;32.30;61.81
74474;BME280;62922;-6.168;106.796;2023-06-10T07:05:47;100694.78;;;32.31;61.61
74474;BME280;62922;-6.168;106.796;2023-06-10T07:08:15;100683.50;;;32.31;61.76
74474;BME280;62922;-6.168;106.796;2023-06-10T07:10:41;100688.00;;;32.32;61.43
74474;BME280;62922;-6.168;106.796;2023-06-10T07:13:07;100683.16;;;32.32;61.62
74474;BME280;62922;-6.168;106.796;2023-06-10T07:15:33;100689.28;;;32.34;62.27
74474;BME280;62922;-6.168;106.796;2023-06-10T07:17:59;100688.13;;;32.35;62.06
74474;BME280;62922;-6.168;106.796;2023-06-10T07:20:25;100672.81;;;32.36;61.99
74474;BME280;62922;-6.168;106.796;2023-06-10T07:22:51;100672.47;;;32.38;61.53
74474;BME280;62922;-6.168;106.796;2023-06-10T07:25:17;100673.31;;;32.38;61.50
74474;BME280;62922;-6.168;106.796;2023-06-10T07:27:43;100672.16;;;32.39;61.73
74474;BME280;62922;-6.168;106.796;2023-06-10T07:30:08;100668.13;;;32.40;61.81
74474;BME280;62922;-6.168;106.796;2023-06-10T07:32:35;100668.13;;;32.40;62.37
74474;BME280;62922;-6.168;106.796;2023-06-10T07:35:00;100676.28;;;32.42;62.21
74474;BME280;62922;-6.168;106.796;2023-06-10T07:37:26;100662.47;;;32.40;61.60
74474;BME280;62922;-6.168;106.796;2023-06-10T07:39:52;100662.16;;;32.42;61.67
74474;BME280;62922;-6.168;106.796;2023-06-10T07:42:18;100666.66;;;32.43;62.38
74474;BME280;62922;-6.168;106.796;2023-06-10T07:44:44;100670.28;;;32.43;62.38
74474;BME280;62922;-6.168;106.796;2023-06-10T07:47:10;100657.34;;;32.42;61.73
74474;BME280;62922;-6.168;106.796;2023-06-10T07:49:36;100650.88;;;32.42;62.27
74474;BME280;62922;-6.168;106.796;2023-06-10T07:52:02;100658.19;;;32.43;62.07
74474;BME280;62922;-6.168;106.796;2023-06-10T07:54:28;100653.34;;;32.43;62.00
74474;BME280;62922;-6.168;106.796;2023-06-10T07:56:54;100650.50;;;32.43;62.32
74474;BME280;62922;-6.168;106.796;2023-06-10T07:59:20;100649.72;;;32.43;61.74
74474;BME280;62922;-6.168;106.796;2023-06-10T08:01:45;100647.69;;;32.43;61.75
74474;BME280;62922;-6.168;106.796;2023-06-10T08:04:11;100640.03;;;32.44;62.29
74474;BME280;62922;-6.168;106.796;2023-06-10T08:06:40;100647.38;;;32.45;62.24
74474;BME280;62922;-6.168;106.796;2023-06-10T08:09:06;100646.53;;;32.44;61.69
74474;BME280;62922;-6.168;106.796;2023-06-10T08:11:32;100655.00;;;32.44;62.00
74474;BME280;62922;-6.168;106.796;2023-06-10T08:13:58;100648.16;;;32.45;62.29
74474;BME280;62922;-6.168;106.796;2023-06-10T08:16:24;100648.16;;;32.45;62.22
74474;BME280;62922;-6.168;106.796;2023-06-10T08:18:50;100650.19;;;32.45;62.04
74474;BME280;62922;-6.168;106.796;2023-06-10T08:21:15;100648.16;;;32.45;62.03
74474;BME280;62922;-6.168;106.796;2023-06-10T08:23:41;100647.38;;;32.45;61.52
74474;BME280;62922;-6.168;106.796;2023-06-10T08:26:07;100661.97;;;32.47;61.89
74474;BME280;62922;-6.168;106.796;2023-06-10T08:28:33;100658.66;;;32.45;61.59
74474;BME280;62922;-6.168;106.796;2023-06-10T08:30:59;100661.50;;;32.45;61.13
74474;BME280;62922;-6.168;106.796;2023-06-10T08:33:25;100669.13;;;32.44;61.09
74474;BME280;62922;-6.168;106.796;2023-06-10T08:35:51;100664.31;;;32.45;61.08
74474;BME280;62922;-6.168;106.796;2023-06-10T08:38:17;100659.47;;;32.45;61.65
74474;BME280;62922;-6.168;106.796;2023-06-10T08:40:43;100655.50;;;32.46;61.10
74474;BME280;62922;-6.168;106.796;2023-06-10T08:43:16;100663.97;;;32.46;61.00
74474;BME280;62922;-6.168;106.796;2023-06-10T08:45:43;100665.13;;;32.45;61.30
74474;BME280;62922;-6.168;106.796;2023-06-10T08:48:10;100661.13;;;32.46;61.11
74474;BME280;62922;-6.168;106.796;2023-06-10T08:50:37;100659.47;;;32.45;60.74
74474;BME280;62922;-6.168;106.796;2023-06-10T08:53:06;100666.31;;;32.44;61.04
74474;BME280;62922;-6.168;106.796;2023-06-10T08:55:35;100671.94;;;32.44;60.88
74474;BME280;62922;-6.168;106.796;2023-06-10T08:58:02;100671.94;;;32.44;60.48
74474;BME280;62922;-6.168;106.796;2023-06-10T09:00:28;100665.47;;;32.44;60.24
74474;BME280;62922;-6.168;106.796;2023-06-10T09:02:56;100662.66;;;32.44;60.04
74474;BME280;62922;-6.168;106.796;2023-06-10T09:05:22;100665.47;;;32.44;59.98
74474;BME280;62922;-6.168;106.796;2023-06-10T09:07:48;100670.28;;;32.43;60.02
74474;BME280;62922;-6.168;106.796;2023-06-10T09:10:14;100668.66;;;32.42;60.51
74474;BME280;62922;-6.168;106.796;2023-06-10T09:12:43;100672.31;;;32.43;59.93
74474;BME280;62922;-6.168;106.796;2023-06-10T09:15:09;100677.13;;;32.42;59.87
74474;BME280;62922;-6.168;106.796;2023-06-10T09:17:37;100682.41;;;32.44;60.03
74474;BME280;62922;-6.168;106.796;2023-06-10T09:20:03;100688.41;;;32.42;60.12
74474;BME280;62922;-6.168;106.796;2023-06-10T09:22:29;100685.06;;;32.40;60.42
74474;BME280;62922;-6.168;106.796;2023-06-10T09:25:05;100692.41;;;32.41;60.72
74474;BME280;62922;-6.168;106.796;2023-06-10T09:27:51;100703.69;;;32.41;60.50
74474;BME280;62922;-6.168;106.796;2023-06-10T09:32:49;100708.50;;;32.41;60.20
74474;BME280;62922;-6.168;106.796;2023-06-10T09:35:15;100710.50;;;32.40;60.15
74474;BME280;62922;-6.168;106.796;2023-06-10T09:37:41;100715.00;;;32.41;60.70
74474;BME280;62922;-6.168;106.796;2023-06-10T09:40:09;100719.81;;;32.41;60.80
74474;BME280;62922;-6.168;106.796;2023-06-10T09:42:38;100713.31;;;32.40;60.51
74474;BME280;62922;-6.168;106.796;2023-06-10T09:45:07;100718.13;;;32.40;61.02
74474;BME280;62922;-6.168;106.796;2023-06-10T09:47:38;100718.97;;;32.40;60.57
74474;BME280;62922;-6.168;106.796;2023-06-10T09:50:04;100716.16;;;32.40;60.67
74474;BME280;62922;-6.168;106.796;2023-06-10T09:52:30;100720.97;;;32.40;61.00
74474;BME280;62922;-6.168;106.796;2023-06-10T09:54:59;100720.16;;;32.39;60.53
74474;BME280;62922;-6.168;106.796;2023-06-10T10:00:08;100728.63;;;32.39;60.63
74474;BME280;62922;-6.168;106.796;2023-06-10T10:05:21;100731.47;;;32.39;60.67
74474;BME280;62922;-6.168;106.796;2023-06-10T10:07:47;100722.16;;;32.39;61.13
74474;BME280;62922;-6.168;106.796;2023-06-10T10:10:14;100726.97;;;32.38;60.68
74474;BME280;62922;-6.168;106.796;2023-06-10T10:12:40;100730.97;;;32.37;60.62
74474;BME280;62922;-6.168;106.796;2023-06-10T10:15:07;100740.25;;;32.38;60.74
74474;BME280;62922;-6.168;106.796;2023-06-10T10:17:36;100739.44;;;32.37;61.10
74474;BME280;62922;-6.168;106.796;2023-06-10T10:20:04;100729.31;;;32.36;60.66
74474;BME280;62922;-6.168;106.796;2023-06-10T10:22:35;100740.25;;;32.38;60.77
74474;BME280;62922;-6.168;106.796;2023-06-10T10:25:05;100733.78;;;32.37;60.58
74474;BME280;62922;-6.168;106.796;2023-06-10T10:27:35;100740.59;;;32.36;61.02
74474;BME280;62922;-6.168;106.796;2023-06-10T10:30:02;100736.63;;;32.37;61.14
74474;BME280;62922;-6.168;106.796;2023-06-10T10:32:38;100732.13;;;32.36;60.63
74474;BME280;62922;-6.168;106.796;2023-06-10T10:35:08;100731.31;;;32.36;60.61
74474;BME280;62922;-6.168;106.796;2023-06-10T10:37:35;100734.94;;;32.36;61.02
74474;BME280;62922;-6.168;106.796;2023-06-10T10:40:01;100734.16;;;32.36;60.81
74474;BME280;62922;-6.168;106.796;2023-06-10T10:42:28;100752.25;;;32.35;60.64
74474;BME280;62922;-6.168;106.796;2023-06-10T10:44:54;100752.25;;;32.35;60.68
74474;BME280;62922;-6.168;106.796;2023-06-10T10:47:21;100759.88;;;32.34;61.11
74474;BME280;62922;-6.168;106.796;2023-06-10T10:49:48;100771.19;;;32.34;61.10
74474;BME280;62922;-6.168;106.796;2023-06-10T10:52:20;100781.69;;;32.34;60.72
74474;BME280;62922;-6.168;106.796;2023-06-10T10:54:46;100782.00;;;32.32;61.01
74474;BME280;62922;-6.168;106.796;2023-06-10T10:57:15;100783.31;;;32.35;60.70
74474;BME280;62922;-6.168;106.796;2023-06-10T11:02:09;100793.28;;;32.32;60.76
74474;BME280;62922;-6.168;106.796;2023-06-10T11:04:35;100796.94;;;32.33;61.20
74474;BME280;62922;-6.168;106.796;2023-06-10T11:07:05;100800.97;;;32.32;61.31
74474;BME280;62922;-6.168;106.796;2023-06-10T11:09:32;100805.78;;;32.31;61.19
74474;BME280;62922;-6.168;106.796;2023-06-10T11:11:58;100806.25;;;32.33;60.80
74474;BME280;62922;-6.168;106.796;2023-06-10T11:14:27;100807.75;;;32.31;61.23
74474;BME280;62922;-6.168;106.796;2023-06-10T11:16:56;100804.94;;;32.31;61.05
74474;BME280;62922;-6.168;106.796;2023-06-10T11:19:43;100802.94;;;32.31;60.73
74474;BME280;62922;-6.168;106.796;2023-06-10T11:22:16;100796.81;;;32.29;61.14
74474;BME280;62922;-6.168;106.796;2023-06-10T11:24:47;100798.00;;;32.28;60.84
74474;BME280;62922;-6.168;106.796;2023-06-10T11:27:15;100803.28;;;32.30;61.29
74474;BME280;62922;-6.168;106.796;2023-06-10T11:32:31;100811.28;;;32.28;60.84
74474;BME280;62922;-6.168;106.796;2023-06-10T11:34:57;100814.09;;;32.28;60.83
74474;BME280;62922;-6.168;106.796;2023-06-10T11:37:23;100816.94;;;32.28;61.43
74474;BME280;62922;-6.168;106.796;2023-06-10T11:39:52;100818.06;;;32.27;60.98
74474;BME280;62922;-6.168;106.796;2023-06-10T11:42:19;100817.28;;;32.26;60.78
74474;BME280;62922;-6.168;106.796;2023-06-10T11:44:53;100819.25;;;32.26;60.99
74474;BME280;62922;-6.168;106.796;2023-06-10T11:47:19;100824.06;;;32.25;60.80
74474;BME280;62922;-6.168;106.796;2023-06-10T11:52:32;100830.91;;;32.24;61.19
74474;BME280;62922;-6.168;106.796;2023-06-10T11:55:03;100836.22;;;32.26;61.49
74474;BME280;62922;-6.168;106.796;2023-06-10T11:57:33;100841.03;;;32.25;60.89
74474;BME280;62922;-6.168;106.796;2023-06-10T12:00:03;100841.03;;;32.25;60.92
74474;BME280;62922;-6.168;106.796;2023-06-10T12:02:29;100846.66;;;32.25;61.44
74474;BME280;62922;-6.168;106.796;2023-06-10T12:04:58;100851.50;;;32.25;61.03
74474;BME280;62922;-6.168;106.796;2023-06-10T12:07:35;100849.84;;;32.24;61.05
74474;BME280;62922;-6.168;106.796;2023-06-10T12:10:01;100846.19;;;32.23;61.35
74474;BME280;62922;-6.168;106.796;2023-06-10T12:12:27;100846.19;;;32.23;61.18
74474;BME280;62922;-6.168;106.796;2023-06-10T12:14:54;100850.19;;;32.22;61.34
74474;BME280;62922;-6.168;106.796;2023-06-10T12:17:22;100852.19;;;32.22;61.55
74474;BME280;62922;-6.168;106.796;2023-06-10T12:19:48;100857.81;;;32.22;60.95
74474;BME280;62922;-6.168;106.796;2023-06-10T12:22:14;100859.00;;;32.21;61.36
74474;BME280;62922;-6.168;106.796;2023-06-10T12:24:46;100867.47;;;32.21;61.28
74474;BME280;62922;-6.168;106.796;2023-06-10T12:27:24;100871.44;;;32.20;61.44
74474;BME280;62922;-6.168;106.796;2023-06-10T12:29:51;100877.94;;;32.20;61.35
74474;BME280;62922;-6.168;106.796;2023-06-10T12:32:19;100877.94;;;32.20;61.62
74474;BME280;62922;-6.168;106.796;2023-06-10T12:34:48;100879.91;;;32.20;61.03
74474;BME280;62922;-6.168;106.796;2023-06-10T12:37:14;100878.28;;;32.19;61.30
74474;BME280;62922;-6.168;106.796;2023-06-10T12:39:40;100882.75;;;32.20;61.02
74474;BME280;62922;-6.168;106.796;2023-06-10T12:42:06;100896.88;;;32.20;61.55
74474;BME280;62922;-6.168;106.796;2023-06-10T12:44:42;100892.41;;;32.19;61.39
74474;BME280;62922;-6.168;106.796;2023-06-10T12:47:09;100891.56;;;32.18;61.42
74474;BME280;62922;-6.168;106.796;2023-06-10T12:49:36;100897.22;;;32.18;61.19
74474;BME280;62922;-6.168;106.796;2023-06-10T12:52:03;100904.03;;;32.17;61.57
74474;BME280;62922;-6.168;106.796;2023-06-10T12:54:29;100902.03;;;32.18;61.53
74474;BME280;62922;-6.168;106.796;2023-06-10T12:56:55;100904.03;;;32.17;61.23
74474;BME280;62922;-6.168;106.796;2023-06-10T12:59:21;100918.16;;;32.17;61.49
74474;BME280;62922;-6.168;106.796;2023-06-10T13:01:50;100913.66;;;32.16;61.68
74474;BME280;62922;-6.168;106.796;2023-06-10T13:04:17;100910.03;;;32.16;61.30
74474;BME280;62922;-6.168;106.796;2023-06-10T13:06:43;100914.84;;;32.15;61.25
74474;BME280;62922;-6.168;106.796;2023-06-10T13:09:09;100923.31;;;32.15;61.51
74474;BME280;62922;-6.168;106.796;2023-06-10T13:11:38;100928.97;;;32.15;61.75
74474;BME280;62922;-6.168;106.796;2023-06-10T13:14:04;100929.78;;;32.16;61.92
74474;BME280;62922;-6.168;106.796;2023-06-10T13:16:31;100932.94;;;32.14;61.74
74474;BME280;62922;-6.168;106.796;2023-06-10T13:19:00;100933.78;;;32.15;61.27
74474;BME280;62922;-6.168;106.796;2023-06-10T13:21:28;100926.47;;;32.14;62.00
74474;BME280;62922;-6.168;106.796;2023-06-10T13:23:53;100936.94;;;32.13;61.41
74474;BME280;62922;-6.168;106.796;2023-06-10T13:26:22;100936.94;;;32.13;61.81
74474;BME280;62922;-6.168;106.796;2023-06-10T13:28:48;100942.59;;;32.13;61.49
74474;BME280;62922;-6.168;106.796;2023-06-10T13:31:14;100951.06;;;32.13;61.63
74474;BME280;62922;-6.168;106.796;2023-06-10T13:33:40;100947.38;;;32.13;62.26
74474;BME280;62922;-6.168;106.796;2023-06-10T13:36:08;100956.69;;;32.13;61.86
74474;BME280;62922;-6.168;106.796;2023-06-10T13:38:34;100949.38;;;32.12;62.65
74474;BME280;62922;-6.168;106.796;2023-06-10T13:41:00;100955.84;;;32.13;62.75
74474;BME280;62922;-6.168;106.796;2023-06-10T13:43:26;100950.56;;;32.11;62.26
74474;BME280;62922;-6.168;106.796;2023-06-10T13:45:52;100956.19;;;32.11;62.18
74474;BME280;62922;-6.168;106.796;2023-06-10T13:48:18;100957.38;;;32.10;62.78
74474;BME280;62922;-6.168;106.796;2023-06-10T13:50:45;100959.88;;;32.12;62.50
74474;BME280;62922;-6.168;106.796;2023-06-10T13:53:14;100968.34;;;32.12;62.49
74474;BME280;62922;-6.168;106.796;2023-06-10T13:55:40;100969.47;;;32.11;62.86